sensor_id;sensor_type;location;lat;lon;timestamp;pressure;altitude;pressure_sealevel;temperature;humidity
68822;BME280;55834;50.870;4.606;2024-02-14T00:00:26;100820.47;;;7.01;66.74
68822;BME280;55834;50.870;4.606;2024-02-14T00:02:51;100825.22;;;6.63;67.29
68822;BME280;55834;50.870;4.606;2024-02-14T00:05:17;100820.44;;;7.03;67.22
68822;BME280;55834;50.870;4.606;2024-02-14T00:07:43;100816.50;;;7.35;65.67
68822;BME280;55834;50.870;4.606;2024-02-14T00:10:09;100813.50;;;6.97;66.15
68822;BME280;55834;50.870;4.606;2024-02-14T00:12:35;100807.72;;;6.69;66.92
68822;BME280;55834;50.870;4.606;2024-02-14T00:15:04;100815.25;;;6.97;66.32
68822;BME280;55834;50.870;4.606;2024-02-14T00:17:31;100819.56;;;7.03;66.82
68822;BME280;55834;50.870;4.606;2024-02-14T00:19:57;100808.28;;;6.96;66.30
68822;BME280;55834;50.870;4.606;2024-02-14T00:22:23;100805.25;;;7.27;66.02
68822;BME280;55834;50.870;4.606;2024-02-14T00:24:49;100803.09;;;7.55;64.87
68822;BME280;55834;50.870;4.606;2024-02-14T00:27:14;100796.97;;;6.92;66.28
68822;BME280;55834;50.870;4.606;2024-02-14T00:29:40;100804.00;;;6.87;66.83
68822;BME280;55834;50.870;4.606;2024-02-14T00:32:05;100794.31;;;6.94;66.26
68822;BME280;55834;50.870;4.606;2024-02-14T00:34:31;100796.38;;;6.67;66.75
68822;BME280;55834;50.870;4.606;2024-02-14T00:36:56;100800.34;;;6.17;68.65
68822;BME280;55834;50.870;4.606;2024-02-14T00:39:21;100796.19;;;6.83;67.49
68822;BME280;55834;50.870;4.606;2024-02-14T00:41:47;100810.59;;;6.42;68.03
68822;BME280;55834;50.870;4.606;2024-02-14T00:44:13;100802.84;;;6.28;68.65
68822;BME280;55834;50.870;4.606;2024-02-14T00:46:42;100796.34;;;6.69;67.95
68822;BME280;55834;50.870;4.606;2024-02-14T00:49:08;100798.69;;;6.92;66.22
68822;BME280;55834;50.870;4.606;2024-02-14T00:51:33;100806.78;;;6.75;67.04
68822;BME280;55834;50.870;4.606;2024-02-14T00:54:00;100812.66;;;6.95;66.70
68822;BME280;55834;50.870;4.606;2024-02-14T00:56:25;100806.88;;;6.64;67.84
68822;BME280;55834;50.870;4.606;2024-02-14T00:58:50;100828.66;;;6.74;67.58
68822;BME280;55834;50.870;4.606;2024-02-14T01:01:16;100827.81;;;6.70;67.39
68822;BME280;55834;50.870;4.606;2024-02-14T01:03:41;100826.63;;;6.97;67.08
68822;BME280;55834;50.870;4.606;2024-02-14T01:06:07;100830.88;;;7.08;65.98
68822;BME280;55834;50.870;4.606;2024-02-14T01:08:32;100830.88;;;7.06;66.33
68822;BME280;55834;50.870;4.606;2024-02-14T01:10:58;100826.88;;;7.47;64.91
68822;BME280;55834;50.870;4.606;2024-02-14T01:13:24;100845.34;;;7.39;65.18
68822;BME280;55834;50.870;4.606;2024-02-14T01:15:49;100840.88;;;7.46;65.03
68822;BME280;55834;50.870;4.606;2024-02-14T01:18:15;100831.44;;;7.33;65.29
68822;BME280;55834;50.870;4.606;2024-02-14T01:20:40;100839.94;;;6.82;66.30
68822;BME280;55834;50.870;4.606;2024-02-14T01:23:05;100837.81;;;7.13;66.45
68822;BME280;55834;50.870;4.606;2024-02-14T01:25:31;100836.66;;;7.36;65.25
68822;BME280;55834;50.870;4.606;2024-02-14T01:27:59;100837.31;;;6.84;67.87
68822;BME280;55834;50.870;4.606;2024-02-14T01:30:24;100849.19;;;7.15;66.44
68822;BME280;55834;50.870;4.606;2024-02-14T01:32:50;100848.00;;;6.59;67.77
68822;BME280;55834;50.870;4.606;2024-02-14T01:35:15;100854.72;;;6.91;67.42
68822;BME280;55834;50.870;4.606;2024-02-14T01:37:41;100859.66;;;7.17;66.73
68822;BME280;55834;50.870;4.606;2024-02-14T01:40:08;100855.50;;;6.99;66.83
68822;BME280;55834;50.870;4.606;2024-02-14T01:42:33;100856.34;;;6.99;67.66
68822;BME280;55834;50.870;4.606;2024-02-14T01:44:59;100852.97;;;7.59;66.57
68822;BME280;55834;50.870;4.606;2024-02-14T01:47:24;100853.06;;;7.52;66.51
68822;BME280;55834;50.870;4.606;2024-02-14T01:49:49;100859.78;;;7.06;66.29
68822;BME280;55834;50.870;4.606;2024-02-14T01:52:15;100858.66;;;7.27;66.84
68822;BME280;55834;50.870;4.606;2024-02-14T01:54:41;100859.84;;;7.01;66.96
68822;BME280;55834;50.870;4.606;2024-02-14T01:57:08;100855.25;;;7.19;67.05
68822;BME280;55834;50.870;4.606;2024-02-14T01:59:33;100857.72;;;7.30;67.09
68822;BME280;55834;50.870;4.606;2024-02-14T02:02:04;100857.66;;;7.36;66.40
68822;BME280;55834;50.870;4.606;2024-02-14T02:04:32;100861.38;;;7.18;66.54
68822;BME280;55834;50.870;4.606;2024-02-14T02:06:57;100863.88;;;7.29;66.06
68822;BME280;55834;50.870;4.606;2024-02-14T02:09:23;100862.03;;;7.35;66.62
68822;BME280;55834;50.870;4.606;2024-02-14T02:11:49;100854.72;;;6.92;67.48
68822;BME280;55834;50.870;4.606;2024-02-14T02:14:15;100850.91;;;7.16;68.50
68822;BME280;55834;50.870;4.606;2024-02-14T02:16:41;100846.59;;;7.11;67.21
68822;BME280;55834;50.870;4.606;2024-02-14T02:19:07;100842.75;;;7.38;67.47
68822;BME280;55834;50.870;4.606;2024-02-14T02:21:35;100849.66;;;7.43;66.36
68822;BME280;55834;50.870;4.606;2024-02-14T02:24:01;100837.75;;;7.19;67.67
68822;BME280;55834;50.870;4.606;2024-02-14T02:26:26;100839.34;;;7.31;67.60
68822;BME280;55834;50.870;4.606;2024-02-14T02:28:52;100839.53;;;7.14;67.66
68822;BME280;55834;50.870;4.606;2024-02-14T02:31:18;100848.44;;;7.03;68.33
68822;BME280;55834;50.870;4.606;2024-02-14T02:33:43;100846.59;;;7.09;67.79
68822;BME280;55834;50.870;4.606;2024-02-14T02:36:08;100844.72;;;6.39;69.49
68822;BME280;55834;50.870;4.606;2024-02-14T02:38:35;100852.34;;;6.68;69.39
68822;BME280;55834;50.870;4.606;2024-02-14T02:41:02;100861.25;;;6.47;70.27
68822;BME280;55834;50.870;4.606;2024-02-14T02:43:28;100867.56;;;7.12;69.14
68822;BME280;55834;50.870;4.606;2024-02-14T02:45:54;100866.78;;;7.06;69.59
68822;BME280;55834;50.870;4.606;2024-02-14T02:48:19;100858.66;;;7.26;68.58
68822;BME280;55834;50.870;4.606;2024-02-14T02:50:48;100868.91;;;7.47;67.49
68822;BME280;55834;50.870;4.606;2024-02-14T02:53:15;100867.00;;;6.87;68.40
68822;BME280;55834;50.870;4.606;2024-02-14T02:55:40;100863.56;;;7.52;67.17
68822;BME280;55834;50.870;4.606;2024-02-14T02:58:06;100864.94;;;7.15;67.96
68822;BME280;55834;50.870;4.606;2024-02-14T03:00:33;100869.91;;;7.38;67.52
68822;BME280;55834;50.870;4.606;2024-02-14T03:02:58;100864.44;;;7.54;66.91
68822;BME280;55834;50.870;4.606;2024-02-14T03:05:23;100871.63;;;7.39;67.47
68822;BME280;55834;50.870;4.606;2024-02-14T03:07:49;100861.03;;;6.71;69.07
68822;BME280;55834;50.870;4.606;2024-02-14T03:10:16;100873.94;;;6.93;68.65
68822;BME280;55834;50.870;4.606;2024-02-14T03:12:47;100869.13;;;7.30;68.10
68822;BME280;55834;50.870;4.606;2024-02-14T03:15:13;100875.56;;;7.03;68.42
68822;BME280;55834;50.870;4.606;2024-02-14T03:17:39;100874.47;;;7.24;68.21
68822;BME280;55834;50.870;4.606;2024-02-14T03:20:05;100875.66;;;6.95;69.80
68822;BME280;55834;50.870;4.606;2024-02-14T03:22:41;100881.91;;;7.55;68.49
68822;BME280;55834;50.870;4.606;2024-02-14T03:25:19;100875.84;;;7.51;67.85
68822;BME280;55834;50.870;4.606;2024-02-14T03:27:45;100863.38;;;7.65;67.04
68822;BME280;55834;50.870;4.606;2024-02-14T03:30:14;100876.19;;;7.88;67.16
68822;BME280;55834;50.870;4.606;2024-02-14T03:32:41;100875.66;;;7.65;66.54
68822;BME280;55834;50.870;4.606;2024-02-14T03:35:07;100878.97;;;7.13;68.45
68822;BME280;55834;50.870;4.606;2024-02-14T03:37:33;100868.81;;;7.53;69.06
68822;BME280;55834;50.870;4.606;2024-02-14T03:39:58;100869.13;;;7.29;69.25
68822;BME280;55834;50.870;4.606;2024-02-14T03:42:24;100877.09;;;7.22;69.06
68822;BME280;55834;50.870;4.606;2024-02-14T03:44:51;100871.06;;;7.14;69.73
68822;BME280;55834;50.870;4.606;2024-02-14T03:47:16;100883.97;;;7.31;69.26
68822;BME280;55834;50.870;4.606;2024-02-14T03:49:42;100881.56;;;7.14;69.98
68822;BME280;55834;50.870;4.606;2024-02-14T03:52:07;100875.59;;;7.69;69.46
68822;BME280;55834;50.870;4.606;2024-02-14T03:54:37;100884.81;;;7.36;69.08
68822;BME280;55834;50.870;4.606;2024-02-14T03:57:03;100888.38;;;7.29;69.75
68822;BME280;55834;50.870;4.606;2024-02-14T03:59:35;100883.50;;;6.97;70.13
68822;BME280;55834;50.870;4.606;2024-02-14T04:02:01;100882.03;;;7.47;70.24
68822;BME280;55834;50.870;4.606;2024-02-14T04:04:26;100882.78;;;7.57;68.92
68822;BME280;55834;50.870;4.606;2024-02-14T04:06:51;100881.19;;;8.08;68.85
68822;BME280;55834;50.870;4.606;2024-02-14T04:09:17;100878.31;;;8.22;67.93
68822;BME280;55834;50.870;4.606;2024-02-14T04:11:42;100885.84;;;7.86;67.65
68822;BME280;55834;50.870;4.606;2024-02-14T04:14:08;100890.34;;;7.80;68.07
68822;BME280;55834;50.870;4.606;2024-02-14T04:16:33;100894.34;;;8.08;67.92
68822;BME280;55834;50.870;4.606;2024-02-14T04:18:59;100887.34;;;8.06;67.14
68822;BME280;55834;50.870;4.606;2024-02-14T04:21:24;100895.94;;;8.17;67.53
68822;BME280;55834;50.870;4.606;2024-02-14T04:23:50;100901.97;;;8.25;66.28
68822;BME280;55834;50.870;4.606;2024-02-14T04:26:21;100904.53;;;7.68;68.47
68822;BME280;55834;50.870;4.606;2024-02-14T04:28:47;100901.47;;;7.96;67.60
68822;BME280;55834;50.870;4.606;2024-02-14T04:31:12;100907.78;;;7.85;68.21
68822;BME280;55834;50.870;4.606;2024-02-14T04:33:38;100903.09;;;8.04;68.35
68822;BME280;55834;50.870;4.606;2024-02-14T04:36:03;100908.38;;;8.06;67.64
68822;BME280;55834;50.870;4.606;2024-02-14T04:38:31;100900.69;;;8.48;67.99
68822;BME280;55834;50.870;4.606;2024-02-14T04:40:56;100901.97;;;8.25;67.35
68822;BME280;55834;50.870;4.606;2024-02-14T04:43:25;100903.13;;;8.06;67.18
68822;BME280;55834;50.870;4.606;2024-02-14T04:45:52;100901.84;;;7.69;68.87
68822;BME280;55834;50.870;4.606;2024-02-14T04:48:17;100903.34;;;7.90;68.82
68822;BME280;55834;50.870;4.606;2024-02-14T04:50:43;100898.91;;;7.92;68.85
68822;BME280;55834;50.870;4.606;2024-02-14T04:53:08;100900.63;;;7.97;68.67
68822;BME280;55834;50.870;4.606;2024-02-14T04:55:34;100889.50;;;8.35;68.48
68822;BME280;55834;50.870;4.606;2024-02-14T04:57:59;100888.38;;;8.51;67.35
68822;BME280;55834;50.870;4.606;2024-02-14T05:00:25;100904.97;;;7.99;67.31
68822;BME280;55834;50.870;4.606;2024-02-14T05:02:50;100895.75;;;8.28;67.82
68822;BME280;55834;50.870;4.606;2024-02-14T05:05:16;100898.13;;;7.86;67.33
68822;BME280;55834;50.870;4.606;2024-02-14T05:07:41;100895.56;;;8.40;67.38
68822;BME280;55834;50.870;4.606;2024-02-14T05:10:07;100904.75;;;8.14;68.20
68822;BME280;55834;50.870;4.606;2024-02-14T05:12:33;100909.19;;;7.48;69.07
68822;BME280;55834;50.870;4.606;2024-02-14T05:14:58;100898.84;;;7.96;68.67
68822;BME280;55834;50.870;4.606;2024-02-14T05:17:24;100895.38;;;7.95;69.12
68822;BME280;55834;50.870;4.606;2024-02-14T05:19:49;100904.53;;;8.27;68.24
68822;BME280;55834;50.870;4.606;2024-02-14T05:22:14;100900.97;;;8.31;68.58
68822;BME280;55834;50.870;4.606;2024-02-14T05:24:40;100897.53;;;8.27;68.28
68822;BME280;55834;50.870;4.606;2024-02-14T05:27:05;100899.72;;;7.96;68.28
68822;BME280;55834;50.870;4.606;2024-02-14T05:29:31;100894.66;;;8.41;68.48
68822;BME280;55834;50.870;4.606;2024-02-14T05:31:57;100900.38;;;8.13;67.12
68822;BME280;55834;50.870;4.606;2024-02-14T05:34:22;100901.34;;;8.61;67.63
68822;BME280;55834;50.870;4.606;2024-02-14T05:36:48;100896.91;;;8.63;66.68
68822;BME280;55834;50.870;4.606;2024-02-14T05:39:13;100907.94;;;8.35;66.64
68822;BME280;55834;50.870;4.606;2024-02-14T05:41:42;100904.88;;;8.04;67.14
68822;BME280;55834;50.870;4.606;2024-02-14T05:44:08;100892.72;;;8.51;67.63
68822;BME280;55834;50.870;4.606;2024-02-14T05:46:33;100905.78;;;7.39;68.92
68822;BME280;55834;50.870;4.606;2024-02-14T05:48:58;100907.59;;;7.96;69.79
68822;BME280;55834;50.870;4.606;2024-02-14T05:51:24;100911.63;;;8.23;69.24
68822;BME280;55834;50.870;4.606;2024-02-14T05:53:49;100906.09;;;8.40;67.68
68822;BME280;55834;50.870;4.606;2024-02-14T05:56:15;100904.22;;;8.45;67.26
68822;BME280;55834;50.870;4.606;2024-02-14T05:58:40;100911.41;;;8.37;66.99
68822;BME280;55834;50.870;4.606;2024-02-14T06:01:06;100901.41;;;8.57;67.14
68822;BME280;55834;50.870;4.606;2024-02-14T06:03:31;100906.78;;;8.50;66.81
68822;BME280;55834;50.870;4.606;2024-02-14T06:05:56;100908.53;;;8.51;66.52
68822;BME280;55834;50.870;4.606;2024-02-14T06:08:22;100913.16;;;8.36;66.34
68822;BME280;55834;50.870;4.606;2024-02-14T06:10:49;100917.94;;;8.66;66.61
68822;BME280;55834;50.870;4.606;2024-02-14T06:13:14;100922.94;;;8.81;66.61
68822;BME280;55834;50.870;4.606;2024-02-14T06:15:40;100916.13;;;8.69;65.66
68822;BME280;55834;50.870;4.606;2024-02-14T06:18:05;100904.72;;;8.69;65.97
68822;BME280;55834;50.870;4.606;2024-02-14T06:20:31;100920.69;;;8.01;67.82
68822;BME280;55834;50.870;4.606;2024-02-14T06:22:57;100929.78;;;8.39;67.32
68822;BME280;55834;50.870;4.606;2024-02-14T06:25:22;100922.91;;;8.30;68.52
68822;BME280;55834;50.870;4.606;2024-02-14T06:27:48;100923.50;;;8.49;66.96
68822;BME280;55834;50.870;4.606;2024-02-14T06:30:13;100926.94;;;8.52;66.65
68822;BME280;55834;50.870;4.606;2024-02-14T06:32:39;100918.66;;;8.74;67.21
68822;BME280;55834;50.870;4.606;2024-02-14T06:35:04;100923.56;;;8.94;65.82
68822;BME280;55834;50.870;4.606;2024-02-14T06:37:30;100915.22;;;8.70;65.55
68822;BME280;55834;50.870;4.606;2024-02-14T06:39:55;100917.69;;;8.28;66.47
68822;BME280;55834;50.870;4.606;2024-02-14T06:42:21;100925.84;;;8.11;67.70
68822;BME280;55834;50.870;4.606;2024-02-14T06:44:46;100925.75;;;8.18;67.14
68822;BME280;55834;50.870;4.606;2024-02-14T06:47:11;100929.44;;;8.60;66.53
68822;BME280;55834;50.870;4.606;2024-02-14T06:49:37;100938.19;;;8.06;67.03
68822;BME280;55834;50.870;4.606;2024-02-14T06:52:03;100930.63;;;7.82;68.78
68822;BME280;55834;50.870;4.606;2024-02-14T06:54:28;100931.28;;;7.96;67.88
68822;BME280;55834;50.870;4.606;2024-02-14T06:56:54;100938.88;;;8.18;68.20
68822;BME280;55834;50.870;4.606;2024-02-14T06:59:19;100941.06;;;7.88;67.82
68822;BME280;55834;50.870;4.606;2024-02-14T07:01:45;100943.69;;;7.88;68.94
68822;BME280;55834;50.870;4.606;2024-02-14T07:04:10;100950.63;;;8.51;67.74
68822;BME280;55834;50.870;4.606;2024-02-14T07:06:35;100938.66;;;8.84;67.14
68822;BME280;55834;50.870;4.606;2024-02-14T07:09:01;100937.72;;;8.35;66.69
68822;BME280;55834;50.870;4.606;2024-02-14T07:11:26;100947.03;;;7.99;68.03
68822;BME280;55834;50.870;4.606;2024-02-14T07:13:52;100953.19;;;7.95;69.26
68822;BME280;55834;50.870;4.606;2024-02-14T07:16:17;100943.16;;;8.25;68.17
68822;BME280;55834;50.870;4.606;2024-02-14T07:18:42;100956.97;;;8.39;68.31
68822;BME280;55834;50.870;4.606;2024-02-14T07:21:08;100957.00;;;8.36;67.43
68822;BME280;55834;50.870;4.606;2024-02-14T07:23:33;100964.09;;;8.31;66.92
68822;BME280;55834;50.870;4.606;2024-02-14T07:25:59;100967.28;;;8.53;66.86
68822;BME280;55834;50.870;4.606;2024-02-14T07:28:26;100967.69;;;8.27;66.98
68822;BME280;55834;50.870;4.606;2024-02-14T07:30:51;100967.16;;;8.59;66.81
68822;BME280;55834;50.870;4.606;2024-02-14T07:33:16;100960.97;;;8.62;67.18
68822;BME280;55834;50.870;4.606;2024-02-14T07:35:42;100965.59;;;8.47;66.92
68822;BME280;55834;50.870;4.606;2024-02-14T07:38:08;100961.31;;;8.42;67.63
68822;BME280;55834;50.870;4.606;2024-02-14T07:40:33;100962.09;;;8.48;67.42
68822;BME280;55834;50.870;4.606;2024-02-14T07:42:59;100961.75;;;8.12;68.20
68822;BME280;55834;50.870;4.606;2024-02-14T07:45:25;100963.22;;;8.30;67.98
68822;BME280;55834;50.870;4.606;2024-02-14T07:47:51;100971.84;;;8.42;67.93
68822;BME280;55834;50.870;4.606;2024-02-14T07:50:16;100967.41;;;8.44;67.31
68822;BME280;55834;50.870;4.606;2024-02-14T07:52:45;100971.25;;;8.23;68.44
68822;BME280;55834;50.870;4.606;2024-02-14T07:55:11;100968.03;;;8.61;67.52
68822;BME280;55834;50.870;4.606;2024-02-14T07:57:40;100969.94;;;8.51;67.74
68822;BME280;55834;50.870;4.606;2024-02-14T08:00:06;100968.66;;;8.74;66.82
68822;BME280;55834;50.870;4.606;2024-02-14T08:02:34;100963.16;;;8.89;66.66
68822;BME280;55834;50.870;4.606;2024-02-14T08:04:59;100969.41;;;8.29;68.53
68822;BME280;55834;50.870;4.606;2024-02-14T08:07:25;100978.16;;;8.30;68.40
68822;BME280;55834;50.870;4.606;2024-02-14T08:09:50;100965.59;;;8.49;68.53
68822;BME280;55834;50.870;4.606;2024-02-14T08:12:15;100971.06;;;8.35;68.17
68822;BME280;55834;50.870;4.606;2024-02-14T08:14:41;100969.16;;;8.45;68.41
68822;BME280;55834;50.870;4.606;2024-02-14T08:17:06;100983.56;;;8.21;68.39
68822;BME280;55834;50.870;4.606;2024-02-14T08:19:31;100984.56;;;8.68;68.44
68822;BME280;55834;50.870;4.606;2024-02-14T08:21:57;100986.44;;;8.61;67.56
68822;BME280;55834;50.870;4.606;2024-02-14T08:24:25;100986.81;;;8.92;67.64
68822;BME280;55834;50.870;4.606;2024-02-14T08:26:51;100979.94;;;8.82;67.33
68822;BME280;55834;50.870;4.606;2024-02-14T08:29:17;100994.25;;;8.08;69.87
68822;BME280;55834;50.870;4.606;2024-02-14T08:31:43;100988.16;;;8.62;69.08
68822;BME280;55834;50.870;4.606;2024-02-14T08:34:10;100990.25;;;8.96;68.52
68822;BME280;55834;50.870;4.606;2024-02-14T08:36:35;100987.25;;;8.66;68.65
68822;BME280;55834;50.870;4.606;2024-02-14T08:39:09;100987.03;;;8.77;69.20
68822;BME280;55834;50.870;4.606;2024-02-14T08:41:38;100988.31;;;8.53;69.08
68822;BME280;55834;50.870;4.606;2024-02-14T08:44:08;100988.38;;;8.50;69.67
68822;BME280;55834;50.870;4.606;2024-02-14T08:46:34;100992.81;;;8.45;70.11
68822;BME280;55834;50.870;4.606;2024-02-14T08:49:02;100996.16;;;8.57;69.50
68822;BME280;55834;50.870;4.606;2024-02-14T08:51:30;101000.97;;;8.28;70.10
68822;BME280;55834;50.870;4.606;2024-02-14T08:53:55;101009.00;;;8.19;70.47
68822;BME280;55834;50.870;4.606;2024-02-14T08:56:25;101018.28;;;8.46;70.52
68822;BME280;55834;50.870;4.606;2024-02-14T08:58:50;101012.00;;;8.53;70.04
68822;BME280;55834;50.870;4.606;2024-02-14T09:01:15;101021.16;;;8.27;70.02
68822;BME280;55834;50.870;4.606;2024-02-14T09:03:42;101031.47;;;8.41;70.78
68822;BME280;55834;50.870;4.606;2024-02-14T09:06:13;101019.47;;;8.80;70.30
68822;BME280;55834;50.870;4.606;2024-02-14T09:08:38;101018.97;;;8.57;70.18
68822;BME280;55834;50.870;4.606;2024-02-14T09:11:03;101018.78;;;8.68;69.64
68822;BME280;55834;50.870;4.606;2024-02-14T09:13:29;101018.22;;;8.47;69.89
68822;BME280;55834;50.870;4.606;2024-02-14T09:15:55;101017.03;;;8.68;70.20
68822;BME280;55834;50.870;4.606;2024-02-14T09:18:21;101009.75;;;8.84;69.27
68822;BME280;55834;50.870;4.606;2024-02-14T09:20:46;100999.44;;;9.20;68.87
68822;BME280;55834;50.870;4.606;2024-02-14T09:23:12;101008.69;;;8.94;69.02
68822;BME280;55834;50.870;4.606;2024-02-14T09:25:39;101020.69;;;9.11;69.40
68822;BME280;55834;50.870;4.606;2024-02-14T09:28:05;101013.56;;;8.65;70.03
68822;BME280;55834;50.870;4.606;2024-02-14T09:30:32;101017.03;;;8.09;71.48
68822;BME280;55834;50.870;4.606;2024-02-14T09:32:58;101019.38;;;8.85;71.05
68822;BME280;55834;50.870;4.606;2024-02-14T09:35:24;101011.94;;;9.10;70.20
68822;BME280;55834;50.870;4.606;2024-02-14T09:37:50;101014.97;;;8.86;70.34
68822;BME280;55834;50.870;4.606;2024-02-14T09:40:16;101004.94;;;9.08;69.77
68822;BME280;55834;50.870;4.606;2024-02-14T09:42:56;101008.84;;;8.87;69.60
68822;BME280;55834;50.870;4.606;2024-02-14T09:45:26;101004.81;;;9.15;69.12
68822;BME280;55834;50.870;4.606;2024-02-14T09:47:52;101008.25;;;8.68;69.68
68822;BME280;55834;50.870;4.606;2024-02-14T09:50:19;100999.13;;;8.90;70.08
68822;BME280;55834;50.870;4.606;2024-02-14T09:52:47;101011.09;;;8.54;70.26
68822;BME280;55834;50.870;4.606;2024-02-14T09:55:15;101010.84;;;8.71;70.56
68822;BME280;55834;50.870;4.606;2024-02-14T09:57:41;101022.81;;;9.41;69.77
68822;BME280;55834;50.870;4.606;2024-02-14T10:00:11;101020.94;;;9.48;68.75
68822;BME280;55834;50.870;4.606;2024-02-14T10:02:36;101025.06;;;9.12;68.87
68822;BME280;55834;50.870;4.606;2024-02-14T10:05:03;101024.25;;;9.58;68.43
68822;BME280;55834;50.870;4.606;2024-02-14T10:07:29;101028.03;;;9.43;68.36
68822;BME280;55834;50.870;4.606;2024-02-14T10:09:54;101026.19;;;9.49;67.50
68822;BME280;55834;50.870;4.606;2024-02-14T10:12:20;101024.03;;;9.70;67.99
68822;BME280;55834;50.870;4.606;2024-02-14T10:14:45;101027.41;;;9.28;67.75
68822;BME280;55834;50.870;4.606;2024-02-14T10:17:20;101030.16;;;9.69;68.30
68822;BME280;55834;50.870;4.606;2024-02-14T10:19:58;101025.78;;;9.21;69.28
68822;BME280;55834;50.870;4.606;2024-02-14T10:22:24;101024.66;;;9.36;69.48
68822;BME280;55834;50.870;4.606;2024-02-14T10:24:50;101032.44;;;8.91;70.30
68822;BME280;55834;50.870;4.606;2024-02-14T10:27:15;101026.25;;;8.95;69.94
68822;BME280;55834;50.870;4.606;2024-02-14T10:29:41;101021.13;;;9.37;69.85
68822;BME280;55834;50.870;4.606;2024-02-14T10:32:08;101023.22;;;9.18;70.70
68822;BME280;55834;50.870;4.606;2024-02-14T10:34:33;101032.25;;;9.02;71.22
68822;BME280;55834;50.870;4.606;2024-02-14T10:37:01;101023.38;;;9.57;70.34
68822;BME280;55834;50.870;4.606;2024-02-14T10:39:29;101024.81;;;9.27;70.04
68822;BME280;55834;50.870;4.606;2024-02-14T10:41:57;101024.69;;;9.35;70.18
68822;BME280;55834;50.870;4.606;2024-02-14T10:44:22;101023.09;;;9.23;70.40
68822;BME280;55834;50.870;4.606;2024-02-14T10:46:48;101026.28;;;9.43;70.53
68822;BME280;55834;50.870;4.606;2024-02-14T10:49:17;101033.78;;;9.63;70.21
68822;BME280;55834;50.870;4.606;2024-02-14T10:51:46;101029.69;;;9.48;70.04
68822;BME280;55834;50.870;4.606;2024-02-14T10:54:14;101031.41;;;9.51;69.89
68822;BME280;55834;50.870;4.606;2024-02-14T10:56:42;101034.31;;;9.81;70.23
68822;BME280;55834;50.870;4.606;2024-02-14T10:59:09;101033.25;;;9.46;69.68
68822;BME280;55834;50.870;4.606;2024-02-14T11:01:37;101032.50;;;9.84;69.95
68822;BME280;55834;50.870;4.606;2024-02-14T11:04:03;101031.66;;;9.82;69.17
68822;BME280;55834;50.870;4.606;2024-02-14T11:06:30;101034.66;;;9.16;69.83
68822;BME280;55834;50.870;4.606;2024-02-14T11:09:01;101024.97;;;9.18;70.18
68822;BME280;55834;50.870;4.606;2024-02-14T11:11:32;101024.94;;;9.67;69.51
68822;BME280;55834;50.870;4.606;2024-02-14T11:13:57;101025.44;;;9.41;69.84
68822;BME280;55834;50.870;4.606;2024-02-14T11:16:26;101024.09;;;9.65;70.39
68822;BME280;55834;50.870;4.606;2024-02-14T11:19:11;101025.22;;;9.52;70.49
68822;BME280;55834;50.870;4.606;2024-02-14T11:21:45;101029.63;;;9.53;70.37
68822;BME280;55834;50.870;4.606;2024-02-14T11:24:13;101019.44;;;9.78;70.57
68822;BME280;55834;50.870;4.606;2024-02-14T11:26:49;101014.53;;;9.61;70.67
68822;BME280;55834;50.870;4.606;2024-02-14T11:29:17;101021.78;;;9.50;70.74
68822;BME280;55834;50.870;4.606;2024-02-14T11:31:43;101025.34;;;9.47;70.91
68822;BME280;55834;50.870;4.606;2024-02-14T11:34:11;101020.31;;;9.34;71.94
68822;BME280;55834;50.870;4.606;2024-02-14T11:36:38;101020.31;;;9.34;71.30
68822;BME280;55834;50.870;4.606;2024-02-14T11:39:04;101025.59;;;9.79;70.74
68822;BME280;55834;50.870;4.606;2024-02-14T11:41:32;101028.75;;;10.35;70.35
68822;BME280;55834;50.870;4.606;2024-02-14T11:44:01;101024.25;;;10.40;69.33
68822;BME280;55834;50.870;4.606;2024-02-14T11:46:29;101029.47;;;10.03;69.11
68822;BME280;55834;50.870;4.606;2024-02-14T11:48:55;101020.94;;;9.91;69.60
68822;BME280;55834;50.870;4.606;2024-02-14T11:51:22;101024.69;;;10.20;68.87
68822;BME280;55834;50.870;4.606;2024-02-14T11:53:47;101018.41;;;10.26;68.93
68822;BME280;55834;50.870;4.606;2024-02-14T11:56:14;101019.50;;;10.15;68.74
68822;BME280;55834;50.870;4.606;2024-02-14T11:58:40;101009.50;;;10.31;69.08
68822;BME280;55834;50.870;4.606;2024-02-14T12:01:05;101010.03;;;10.07;69.79
68822;BME280;55834;50.870;4.606;2024-02-14T12:03:31;101025.97;;;10.02;69.02
68822;BME280;55834;50.870;4.606;2024-02-14T12:05:56;101015.56;;;9.96;69.53
68822;BME280;55834;50.870;4.606;2024-02-14T12:08:22;101022.53;;;9.55;70.37
68822;BME280;55834;50.870;4.606;2024-02-14T12:10:48;101015.09;;;10.16;70.23
68822;BME280;55834;50.870;4.606;2024-02-14T12:13:21;101006.31;;;10.15;69.52
68822;BME280;55834;50.870;4.606;2024-02-14T12:15:48;101002.66;;;10.61;69.15
68822;BME280;55834;50.870;4.606;2024-02-14T12:18:15;100995.31;;;10.74;68.34
68822;BME280;55834;50.870;4.606;2024-02-14T12:20:41;100997.56;;;10.54;67.71
68822;BME280;55834;50.870;4.606;2024-02-14T12:23:06;100991.97;;;10.27;68.31
68822;BME280;55834;50.870;4.606;2024-02-14T12:25:33;100999.09;;;10.25;69.31
68822;BME280;55834;50.870;4.606;2024-02-14T12:27:59;100988.34;;;10.33;69.38
68822;BME280;55834;50.870;4.606;2024-02-14T12:30:45;100986.28;;;10.46;69.31
68822;BME280;55834;50.870;4.606;2024-02-14T12:33:12;100983.22;;;10.64;68.65
68822;BME280;55834;50.870;4.606;2024-02-14T12:35:44;101004.25;;;10.69;68.98
68822;BME280;55834;50.870;4.606;2024-02-14T12:38:11;101005.88;;;10.74;68.15
68822;BME280;55834;50.870;4.606;2024-02-14T12:40:37;100998.38;;;10.92;68.08
68822;BME280;55834;50.870;4.606;2024-02-14T12:43:02;101000.13;;;10.91;67.30
68822;BME280;55834;50.870;4.606;2024-02-14T12:45:29;101003.75;;;10.89;66.80
68822;BME280;55834;50.870;4.606;2024-02-14T12:47:54;101004.88;;;10.41;68.19
68822;BME280;55834;50.870;4.606;2024-02-14T12:50:20;101009.38;;;10.75;68.37
68822;BME280;55834;50.870;4.606;2024-02-14T12:52:48;101006.75;;;11.09;67.94
68822;BME280;55834;50.870;4.606;2024-02-14T12:55:14;101006.66;;;10.78;66.84